sensor_id;sensor_type;location;lat;lon;timestamp;P1;durP1;ratioP1;P2;durP2;ratioP2
57848;SDS011;68645;44.762;21.516;2023-03-23T00:01:20;62.03;;;42.60;;
57848;SDS011;68645;44.762;21.516;2023-03-23T00:03:48;65.13;;;41.13;;
57848;SDS011;68645;44.762;21.516;2023-03-23T00:06:14;52.63;;;35.50;;
57848;SDS011;68645;44.762;21.516;2023-03-23T00:08:42;64.38;;;39.50;;
57848;SDS011;68645;44.762;21.516;2023-03-23T00:11:12;50.83;;;34.25;;
57848;SDS011;68645;44.762;21.516;2023-03-23T00:13:39;55.20;;;36.10;;
57848;SDS011;68645;44.762;21.516;2023-03-23T00:16:06;56.25;;;36.35;;
57848;SDS011;68645;44.762;21.516;2023-03-23T00:18:43;64.80;;;38.97;;
57848;SDS011;68645;44.762;21.516;2023-03-23T00:21:09;53.85;;;37.17;;
57848;SDS011;68645;44.762;21.516;2023-03-23T00:23:35;47.40;;;34.13;;
57848;SDS011;68645;44.762;21.516;2023-03-23T00:26:01;54.15;;;36.25;;
57848;SDS011;68645;44.762;21.516;2023-03-23T00:28:27;54.25;;;36.20;;
57848;SDS011;68645;44.762;21.516;2023-03-23T00:31:12;48.83;;;32.38;;
57848;SDS011;68645;44.762;21.516;2023-03-23T00:33:39;38.78;;;28.42;;
57848;SDS011;68645;44.762;21.516;2023-03-23T00:36:09;39.35;;;27.48;;
57848;SDS011;68645;44.762;21.516;2023-03-23T00:38:36;41.50;;;29.45;;
57848;SDS011;68645;44.762;21.516;2023-03-23T00:41:03;43.42;;;31.08;;
57848;SDS011;68645;44.762;21.516;2023-03-23T00:43:29;40.63;;;28.85;;
57848;SDS011;68645;44.762;21.516;2023-03-23T00:45:56;38.88;;;28.10;;
57848;SDS011;68645;44.762;21.516;2023-03-23T00:48:26;35.45;;;25.75;;
57848;SDS011;68645;44.762;21.516;2023-03-23T00:50:52;39.55;;;28.20;;
57848;SDS011;68645;44.762;21.516;2023-03-23T00:53:19;35.40;;;27.15;;
57848;SDS011;68645;44.762;21.516;2023-03-23T00:55:45;39.30;;;29.05;;
57848;SDS011;68645;44.762;21.516;2023-03-23T00:58:12;44.65;;;30.05;;
57848;SDS011;68645;44.762;21.516;2023-03-23T01:00:38;37.63;;;25.58;;
57848;SDS011;68645;44.762;21.516;2023-03-23T01:03:05;34.60;;;24.13;;
57848;SDS011;68645;44.762;21.516;2023-03-23T01:05:35;38.65;;;27.67;;
57848;SDS011;68645;44.762;21.516;2023-03-23T01:08:02;49.55;;;31.25;;
57848;SDS011;68645;44.762;21.516;2023-03-23T01:10:28;61.50;;;40.90;;
57848;SDS011;68645;44.762;21.516;2023-03-23T01:12:57;58.05;;;39.78;;
57848;SDS011;68645;44.762;21.516;2023-03-23T01:15:24;50.53;;;34.78;;
57848;SDS011;68645;44.762;21.516;2023-03-23T01:17:50;52.80;;;34.78;;
57848;SDS011;68645;44.762;21.516;2023-03-23T01:20:16;52.58;;;35.08;;
57848;SDS011;68645;44.762;21.516;2023-03-23T01:22:42;49.03;;;33.72;;
57848;SDS011;68645;44.762;21.516;2023-03-23T01:25:09;49.35;;;32.97;;
57848;SDS011;68645;44.762;21.516;2023-03-23T01:27:35;44.78;;;31.25;;
57848;SDS011;68645;44.762;21.516;2023-03-23T01:30:02;47.08;;;32.97;;
57848;SDS011;68645;44.762;21.516;2023-03-23T01:32:29;50.25;;;33.35;;
57848;SDS011;68645;44.762;21.516;2023-03-23T01:34:55;42.97;;;30.58;;
57848;SDS011;68645;44.762;21.516;2023-03-23T01:37:21;43.72;;;29.50;;
57848;SDS011;68645;44.762;21.516;2023-03-23T01:39:57;37.88;;;28.20;;
57848;SDS011;68645;44.762;21.516;2023-03-23T01:42:24;43.40;;;31.08;;
57848;SDS011;68645;44.762;21.516;2023-03-23T01:47:17;33.53;;;25.10;;
57848;SDS011;68645;44.762;21.516;2023-03-23T01:49:46;34.90;;;25.58;;
57848;SDS011;68645;44.762;21.516;2023-03-23T01:52:16;34.40;;;23.35;;
57848;SDS011;68645;44.762;21.516;2023-03-23T01:54:46;29.02;;;21.10;;
57848;SDS011;68645;44.762;21.516;2023-03-23T01:57:13;34.75;;;23.95;;
57848;SDS011;68645;44.762;21.516;2023-03-23T01:59:41;29.40;;;21.52;;
57848;SDS011;68645;44.762;21.516;2023-03-23T02:02:07;26.13;;;19.55;;
57848;SDS011;68645;44.762;21.516;2023-03-23T02:04:36;24.75;;;18.73;;
57848;SDS011;68645;44.762;21.516;2023-03-23T02:07:02;26.65;;;18.50;;
57848;SDS011;68645;44.762;21.516;2023-03-23T02:09:29;25.70;;;18.55;;
57848;SDS011;68645;44.762;21.516;2023-03-23T02:11:55;25.40;;;18.63;;
57848;SDS011;68645;44.762;21.516;2023-03-23T02:14:23;29.27;;;20.05;;
57848;SDS011;68645;44.762;21.516;2023-03-23T02:19:27;26.20;;;19.88;;
57848;SDS011;68645;44.762;21.516;2023-03-23T02:22:00;25.90;;;18.23;;
57848;SDS011;68645;44.762;21.516;2023-03-23T02:27:01;27.55;;;19.25;;
57848;SDS011;68645;44.762;21.516;2023-03-23T02:34:46;25.58;;;19.35;;
57848;SDS011;68645;44.762;21.516;2023-03-23T02:37:18;22.75;;;17.60;;
57848;SDS011;68645;44.762;21.516;2023-03-23T02:39:47;25.63;;;17.35;;
57848;SDS011;68645;44.762;21.516;2023-03-23T02:42:19;21.77;;;16.98;;
57848;SDS011;68645;44.762;21.516;2023-03-23T02:44:46;19.42;;;15.63;;
57848;SDS011;68645;44.762;21.516;2023-03-23T02:47:15;22.17;;;17.10;;
57848;SDS011;68645;44.762;21.516;2023-03-23T02:49:43;24.95;;;18.35;;
57848;SDS011;68645;44.762;21.516;2023-03-23T02:52:14;23.95;;;17.88;;
57848;SDS011;68645;44.762;21.516;2023-03-23T02:54:42;25.02;;;18.20;;
57848;SDS011;68645;44.762;21.516;2023-03-23T02:57:09;26.85;;;18.23;;
57848;SDS011;68645;44.762;21.516;2023-03-23T02:59:36;21.60;;;16.55;;
57848;SDS011;68645;44.762;21.516;2023-03-23T03:02:07;27.02;;;19.00;;
57848;SDS011;68645;44.762;21.516;2023-03-23T03:04:34;29.02;;;20.13;;
57848;SDS011;68645;44.762;21.516;2023-03-23T03:07:10;25.30;;;16.48;;
57848;SDS011;68645;44.762;21.516;2023-03-23T03:09:53;24.67;;;17.52;;
57848;SDS011;68645;44.762;21.516;2023-03-23T03:12:24;23.60;;;16.98;;
57848;SDS011;68645;44.762;21.516;2023-03-23T03:14:57;26.58;;;19.05;;
57848;SDS011;68645;44.762;21.516;2023-03-23T03:17:25;24.55;;;19.10;;
57848;SDS011;68645;44.762;21.516;2023-03-23T03:19:56;27.83;;;19.70;;
57848;SDS011;68645;44.762;21.516;2023-03-23T03:24:53;46.75;;;27.83;;
57848;SDS011;68645;44.762;21.516;2023-03-23T03:27:21;86.85;;;42.67;;
57848;SDS011;68645;44.762;21.516;2023-03-23T03:29:49;72.40;;;40.05;;
57848;SDS011;68645;44.762;21.516;2023-03-23T03:32:18;71.65;;;40.53;;
57848;SDS011;68645;44.762;21.516;2023-03-23T03:34:46;48.85;;;29.90;;
57848;SDS011;68645;44.762;21.516;2023-03-23T03:37:15;42.78;;;27.17;;
57848;SDS011;68645;44.762;21.516;2023-03-23T03:39:41;51.42;;;31.27;;
57848;SDS011;68645;44.762;21.516;2023-03-23T03:42:07;42.45;;;27.83;;
57848;SDS011;68645;44.762;21.516;2023-03-23T03:44:34;34.42;;;23.33;;
57848;SDS011;68645;44.762;21.516;2023-03-23T03:47:00;31.13;;;20.60;;
57848;SDS011;68645;44.762;21.516;2023-03-23T03:49:26;27.48;;;20.38;;
57848;SDS011;68645;44.762;21.516;2023-03-23T03:51:52;25.00;;;18.95;;
57848;SDS011;68645;44.762;21.516;2023-03-23T03:54:18;23.33;;;17.67;;
57848;SDS011;68645;44.762;21.516;2023-03-23T03:56:45;20.65;;;15.77;;
57848;SDS011;68645;44.762;21.516;2023-03-23T03:59:11;25.27;;;19.00;;
57848;SDS011;68645;44.762;21.516;2023-03-23T04:01:38;27.30;;;19.65;;
57848;SDS011;68645;44.762;21.516;2023-03-23T04:04:04;26.35;;;18.42;;
57848;SDS011;68645;44.762;21.516;2023-03-23T04:06:32;34.97;;;25.27;;
57848;SDS011;68645;44.762;21.516;2023-03-23T04:09:02;33.97;;;23.50;;
57848;SDS011;68645;44.762;21.516;2023-03-23T04:11:31;33.35;;;23.48;;
57848;SDS011;68645;44.762;21.516;2023-03-23T04:13:57;30.05;;;22.02;;
57848;SDS011;68645;44.762;21.516;2023-03-23T04:16:23;28.67;;;21.63;;
57848;SDS011;68645;44.762;21.516;2023-03-23T04:18:51;36.28;;;23.23;;
57848;SDS011;68645;44.762;21.516;2023-03-23T04:21:17;39.03;;;24.23;;
57848;SDS011;68645;44.762;21.516;2023-03-23T04:23:43;42.28;;;25.65;;
57848;SDS011;68645;44.762;21.516;2023-03-23T04:26:10;47.08;;;29.83;;
57848;SDS011;68645;44.762;21.516;2023-03-23T04:28:38;79.18;;;45.17;;
57848;SDS011;68645;44.762;21.516;2023-03-23T04:31:06;331.08;;;158.02;;
57848;SDS011;68645;44.762;21.516;2023-03-23T04:33:34;147.13;;;78.20;;
57848;SDS011;68645;44.762;21.516;2023-03-23T04:36:02;101.13;;;54.08;;
57848;SDS011;68645;44.762;21.516;2023-03-23T04:38:28;94.68;;;53.65;;
57848;SDS011;68645;44.762;21.516;2023-03-23T04:40:57;98.50;;;52.90;;
57848;SDS011;68645;44.762;21.516;2023-03-23T04:43:25;92.72;;;51.80;;
57848;SDS011;68645;44.762;21.516;2023-03-23T04:45:53;76.80;;;44.42;;
57848;SDS011;68645;44.762;21.516;2023-03-23T04:48:21;70.53;;;41.03;;
57848;SDS011;68645;44.762;21.516;2023-03-23T04:50:48;65.07;;;36.50;;
57848;SDS011;68645;44.762;21.516;2023-03-23T04:53:16;53.67;;;31.40;;
57848;SDS011;68645;44.762;21.516;2023-03-23T04:55:42;52.40;;;31.33;;
57848;SDS011;68645;44.762;21.516;2023-03-23T04:58:08;55.53;;;31.33;;
57848;SDS011;68645;44.762;21.516;2023-03-23T05:00:37;53.28;;;31.67;;
57848;SDS011;68645;44.762;21.516;2023-03-23T05:03:04;55.65;;;33.17;;
57848;SDS011;68645;44.762;21.516;2023-03-23T05:05:32;45.78;;;28.52;;
57848;SDS011;68645;44.762;21.516;2023-03-23T05:07:59;53.88;;;31.65;;
57848;SDS011;68645;44.762;21.516;2023-03-23T05:10:26;64.20;;;35.90;;
57848;SDS011;68645;44.762;21.516;2023-03-23T05:12:52;93.95;;;48.38;;
57848;SDS011;68645;44.762;21.516;2023-03-23T05:15:19;102.78;;;51.08;;
57848;SDS011;68645;44.762;21.516;2023-03-23T05:17:45;116.63;;;61.63;;
57848;SDS011;68645;44.762;21.516;2023-03-23T05:20:15;117.47;;;63.10;;
57848;SDS011;68645;44.762;21.516;2023-03-23T05:22:48;105.68;;;54.58;;
57848;SDS011;68645;44.762;21.516;2023-03-23T05:25:14;101.28;;;52.35;;
57848;SDS011;68645;44.762;21.516;2023-03-23T05:27:44;66.05;;;39.97;;
57848;SDS011;68645;44.762;21.516;2023-03-23T05:30:14;59.40;;;37.42;;
57848;SDS011;68645;44.762;21.516;2023-03-23T05:32:43;69.07;;;37.65;;
57848;SDS011;68645;44.762;21.516;2023-03-23T05:35:10;56.72;;;32.30;;
57848;SDS011;68645;44.762;21.516;2023-03-23T05:37:37;56.63;;;32.10;;
57848;SDS011;68645;44.762;21.516;2023-03-23T05:40:04;63.08;;;37.50;;
57848;SDS011;68645;44.762;21.516;2023-03-23T05:42:31;62.47;;;37.45;;
57848;SDS011;68645;44.762;21.516;2023-03-23T05:44:58;75.90;;;41.60;;
57848;SDS011;68645;44.762;21.516;2023-03-23T05:47:25;71.55;;;42.67;;
57848;SDS011;68645;44.762;21.516;2023-03-23T05:49:51;67.45;;;39.83;;
57848;SDS011;68645;44.762;21.516;2023-03-23T05:52:18;104.68;;;67.43;;
57848;SDS011;68645;44.762;21.516;2023-03-23T05:54:45;110.10;;;66.53;;
57848;SDS011;68645;44.762;21.516;2023-03-23T05:57:11;78.57;;;53.30;;
57848;SDS011;68645;44.762;21.516;2023-03-23T05:59:38;64.45;;;42.92;;
57848;SDS011;68645;44.762;21.516;2023-03-23T06:02:04;54.13;;;34.40;;
57848;SDS011;68645;44.762;21.516;2023-03-23T06:04:30;43.53;;;27.55;;
57848;SDS011;68645;44.762;21.516;2023-03-23T06:06:58;39.20;;;25.35;;
57848;SDS011;68645;44.762;21.516;2023-03-23T06:09:24;37.67;;;23.75;;
57848;SDS011;68645;44.762;21.516;2023-03-23T06:11:51;41.58;;;25.75;;
57848;SDS011;68645;44.762;21.516;2023-03-23T06:14:17;35.42;;;22.83;;
57848;SDS011;68645;44.762;21.516;2023-03-23T06:16:43;31.45;;;21.73;;
57848;SDS011;68645;44.762;21.516;2023-03-23T06:19:09;32.65;;;21.55;;
57848;SDS011;68645;44.762;21.516;2023-03-23T06:21:36;33.28;;;21.50;;
57848;SDS011;68645;44.762;21.516;2023-03-23T06:24:02;36.80;;;22.02;;
57848;SDS011;68645;44.762;21.516;2023-03-23T06:26:37;31.10;;;21.92;;
57848;SDS011;68645;44.762;21.516;2023-03-23T06:29:03;30.77;;;21.63;;
57848;SDS011;68645;44.762;21.516;2023-03-23T06:31:40;32.83;;;23.27;;
57848;SDS011;68645;44.762;21.516;2023-03-23T06:34:07;38.60;;;27.95;;
57848;SDS011;68645;44.762;21.516;2023-03-23T06:36:34;33.90;;;25.75;;
57848;SDS011;68645;44.762;21.516;2023-03-23T06:39:01;30.48;;;23.52;;
57848;SDS011;68645;44.762;21.516;2023-03-23T06:41:29;28.48;;;21.17;;
57848;SDS011;68645;44.762;21.516;2023-03-23T06:43:55;32.72;;;22.40;;
57848;SDS011;68645;44.762;21.516;2023-03-23T06:46:22;45.20;;;31.85;;
57848;SDS011;68645;44.762;21.516;2023-03-23T06:48:48;39.17;;;27.98;;
57848;SDS011;68645;44.762;21.516;2023-03-23T06:51:15;33.85;;;24.58;;
57848;SDS011;68645;44.762;21.516;2023-03-23T06:53:42;33.53;;;25.80;;
57848;SDS011;68645;44.762;21.516;2023-03-23T06:56:08;69.07;;;51.15;;
57848;SDS011;68645;44.762;21.516;2023-03-23T06:58:34;94.13;;;68.95;;
57848;SDS011;68645;44.762;21.516;2023-03-23T07:01:01;51.95;;;41.80;;
57848;SDS011;68645;44.762;21.516;2023-03-23T07:03:27;38.78;;;30.42;;
57848;SDS011;68645;44.762;21.516;2023-03-23T07:05:54;36.22;;;30.67;;
57848;SDS011;68645;44.762;21.516;2023-03-23T07:08:20;27.05;;;21.27;;
57848;SDS011;68645;44.762;21.516;2023-03-23T07:10:47;29.27;;;22.50;;
57848;SDS011;68645;44.762;21.516;2023-03-23T07:13:17;25.90;;;20.05;;
57848;SDS011;68645;44.762;21.516;2023-03-23T07:15:43;22.63;;;18.67;;
57848;SDS011;68645;44.762;21.516;2023-03-23T07:18:09;23.92;;;18.88;;
57848;SDS011;68645;44.762;21.516;2023-03-23T07:20:36;32.45;;;22.48;;
57848;SDS011;68645;44.762;21.516;2023-03-23T07:23:02;69.75;;;51.58;;
57848;SDS011;68645;44.762;21.516;2023-03-23T07:25:31;86.18;;;57.00;;
57848;SDS011;68645;44.762;21.516;2023-03-23T07:27:58;43.38;;;29.52;;
57848;SDS011;68645;44.762;21.516;2023-03-23T07:30:25;27.70;;;20.77;;
57848;SDS011;68645;44.762;21.516;2023-03-23T07:32:52;25.15;;;18.52;;
57848;SDS011;68645;44.762;21.516;2023-03-23T07:35:18;28.15;;;20.80;;
57848;SDS011;68645;44.762;21.516;2023-03-23T07:37:45;28.83;;;20.13;;
57848;SDS011;68645;44.762;21.516;2023-03-23T07:40:14;23.77;;;17.58;;
57848;SDS011;68645;44.762;21.516;2023-03-23T07:42:43;27.10;;;20.98;;
57848;SDS011;68645;44.762;21.516;2023-03-23T07:45:10;22.25;;;16.67;;
57848;SDS011;68645;44.762;21.516;2023-03-23T07:47:37;27.00;;;19.40;;
57848;SDS011;68645;44.762;21.516;2023-03-23T07:50:03;20.13;;;15.73;;
57848;SDS011;68645;44.762;21.516;2023-03-23T07:52:29;21.30;;;16.45;;
57848;SDS011;68645;44.762;21.516;2023-03-23T07:54:56;22.88;;;16.25;;
57848;SDS011;68645;44.762;21.516;2023-03-23T07:57:22;20.95;;;15.80;;
57848;SDS011;68645;44.762;21.516;2023-03-23T07:59:48;23.40;;;15.63;;
57848;SDS011;68645;44.762;21.516;2023-03-23T08:02:14;17.25;;;13.25;;
57848;SDS011;68645;44.762;21.516;2023-03-23T08:04:41;23.15;;;16.83;;
57848;SDS011;68645;44.762;21.516;2023-03-23T08:07:07;29.77;;;18.45;;
57848;SDS011;68645;44.762;21.516;2023-03-23T08:09:37;17.52;;;13.40;;
57848;SDS011;68645;44.762;21.516;2023-03-23T08:12:04;27.38;;;16.85;;
57848;SDS011;68645;44.762;21.516;2023-03-23T08:14:30;42.67;;;22.73;;
57848;SDS011;68645;44.762;21.516;2023-03-23T08:16:56;23.33;;;15.40;;
57848;SDS011;68645;44.762;21.516;2023-03-23T08:19:23;24.77;;;13.73;;
57848;SDS011;68645;44.762;21.516;2023-03-23T08:21:50;17.73;;;13.20;;
57848;SDS011;68645;44.762;21.516;2023-03-23T08:24:16;16.45;;;12.52;;
57848;SDS011;68645;44.762;21.516;2023-03-23T08:26:44;22.60;;;15.48;;
57848;SDS011;68645;44.762;21.516;2023-03-23T08:29:10;16.92;;;13.00;;
57848;SDS011;68645;44.762;21.516;2023-03-23T08:31:37;19.33;;;14.77;;
57848;SDS011;68645;44.762;21.516;2023-03-23T08:34:03;19.35;;;14.07;;
57848;SDS011;68645;44.762;21.516;2023-03-23T08:36:30;16.25;;;11.98;;
57848;SDS011;68645;44.762;21.516;2023-03-23T08:38:57;14.55;;;11.43;;
57848;SDS011;68645;44.762;21.516;2023-03-23T08:41:24;17.02;;;12.10;;
57848;SDS011;68645;44.762;21.516;2023-03-23T08:43:50;14.80;;;11.75;;
57848;SDS011;68645;44.762;21.516;2023-03-23T08:46:17;19.58;;;14.50;;
57848;SDS011;68645;44.762;21.516;2023-03-23T08:48:45;13.43;;;11.15;;
57848;SDS011;68645;44.762;21.516;2023-03-23T08:51:12;13.00;;;10.85;;
57848;SDS011;68645;44.762;21.516;2023-03-23T08:53:38;12.98;;;11.13;;
57848;SDS011;68645;44.762;21.516;2023-03-23T08:56:09;15.15;;;11.73;;
57848;SDS011;68645;44.762;21.516;2023-03-23T08:58:36;13.15;;;10.60;;
57848;SDS011;68645;44.762;21.516;2023-03-23T09:01:03;11.15;;;9.95;;
57848;SDS011;68645;44.762;21.516;2023-03-23T09:03:31;16.00;;;10.52;;
57848;SDS011;68645;44.762;21.516;2023-03-23T09:06:02;10.43;;;9.13;;
57848;SDS011;68645;44.762;21.516;2023-03-23T09:08:28;11.73;;;10.52;;
57848;SDS011;68645;44.762;21.516;2023-03-23T09:10:58;13.73;;;10.30;;
57848;SDS011;68645;44.762;21.516;2023-03-23T09:13:25;12.77;;;10.38;;
57848;SDS011;68645;44.762;21.516;2023-03-23T09:15:51;15.55;;;10.82;;
57848;SDS011;68645;44.762;21.516;2023-03-23T09:18:18;14.15;;;12.10;;
57848;SDS011;68645;44.762;21.516;2023-03-23T09:20:44;11.65;;;10.45;;
57848;SDS011;68645;44.762;21.516;2023-03-23T09:23:11;12.90;;;10.13;;
57848;SDS011;68645;44.762;21.516;2023-03-23T09:25:38;10.00;;;8.52;;
57848;SDS011;68645;44.762;21.516;2023-03-23T09:28:05;13.25;;;10.38;;
57848;SDS011;68645;44.762;21.516;2023-03-23T09:30:31;11.40;;;9.25;;
57848;SDS011;68645;44.762;21.516;2023-03-23T09:33:02;13.25;;;10.40;;
57848;SDS011;68645;44.762;21.516;2023-03-23T09:35:28;12.95;;;11.10;;
57848;SDS011;68645;44.762;21.516;2023-03-23T09:37:56;11.95;;;10.23;;
57848;SDS011;68645;44.762;21.516;2023-03-23T09:50:57;11.30;;;9.80;;
57848;SDS011;68645;44.762;21.516;2023-03-23T09:53:32;13.15;;;10.68;;
57848;SDS011;68645;44.762;21.516;2023-03-23T09:56:01;12.55;;;9.95;;
57848;SDS011;68645;44.762;21.516;2023-03-23T09:58:35;10.18;;;9.00;;
57848;SDS011;68645;44.762;21.516;2023-03-23T10:01:06;13.95;;;10.35;;
57848;SDS011;68645;44.762;21.516;2023-03-23T10:03:37;11.52;;;10.30;;
57848;SDS011;68645;44.762;21.516;2023-03-23T10:06:04;10.00;;;9.00;;
57848;SDS011;68645;44.762;21.516;2023-03-23T10:08:31;10.48;;;8.95;;
57848;SDS011;68645;44.762;21.516;2023-03-23T10:16:30;11.10;;;9.88;;
57848;SDS011;68645;44.762;21.516;2023-03-23T10:21:24;11.43;;;8.88;;
57848;SDS011;68645;44.762;21.516;2023-03-23T10:24:01;11.20;;;9.40;;
57848;SDS011;68645;44.762;21.516;2023-03-23T10:29:17;12.75;;;9.73;;
57848;SDS011;68645;44.762;21.516;2023-03-23T10:31:57;11.40;;;9.50;;
57848;SDS011;68645;44.762;21.516;2023-03-23T10:39:27;10.82;;;8.88;;
57848;SDS011;68645;44.762;21.516;2023-03-23T10:41:55;19.30;;;14.97;;
57848;SDS011;68645;44.762;21.516;2023-03-23T10:44:24;13.50;;;11.82;;
57848;SDS011;68645;44.762;21.516;2023-03-23T10:46:53;12.23;;;10.75;;
57848;SDS011;68645;44.762;21.516;2023-03-23T10:49:41;10.93;;;9.82;;
57848;SDS011;68645;44.762;21.516;2023-03-23T10:52:13;15.05;;;12.48;;
57848;SDS011;68645;44.762;21.516;2023-03-23T10:54:51;16.00;;;10.48;;
57848;SDS011;68645;44.762;21.516;2023-03-23T10:59:45;8.52;;;7.57;;
57848;SDS011;68645;44.762;21.516;2023-03-23T11:02:16;9.80;;;8.13;;
57848;SDS011;68645;44.762;21.516;2023-03-23T11:05:02;9.48;;;7.70;;
57848;SDS011;68645;44.762;21.516;2023-03-23T11:07:32;10.18;;;8.70;;
57848;SDS011;68645;44.762;21.516;2023-03-23T11:10:34;10.50;;;8.35;;
57848;SDS011;68645;44.762;21.516;2023-03-23T11:12:52;9.68;;;8.32;;
57848;SDS011;68645;44.762;21.516;2023-03-23T11:15:39;12.48;;;9.20;;
57848;SDS011;68645;44.762;21.516;2023-03-23T11:18:05;10.93;;;9.85;;
57848;SDS011;68645;44.762;21.516;2023-03-23T11:20:34;9.77;;;8.32;;
57848;SDS011;68645;44.762;21.516;2023-03-23T11:23:07;9.50;;;8.23;;
57848;SDS011;68645;44.762;21.516;2023-03-23T11:25:33;9.73;;;8.43;;
57848;SDS011;68645;44.762;21.516;2023-03-23T11:28:00;12.13;;;8.50;;
57848;SDS011;68645;44.762;21.516;2023-03-23T11:30:27;11.10;;;9.23;;
57848;SDS011;68645;44.762;21.516;2023-03-23T11:32:58;11.18;;;8.90;;
57848;SDS011;68645;44.762;21.516;2023-03-23T11:35:26;10.10;;;8.07;;
57848;SDS011;68645;44.762;21.516;2023-03-23T11:37:54;26.38;;;23.55;;
57848;SDS011;68645;44.762;21.516;2023-03-23T11:40:22;8.70;;;7.72;;
57848;SDS011;68645;44.762;21.516;2023-03-23T11:45:25;10.88;;;8.73;;
57848;SDS011;68645;44.762;21.516;2023-03-23T11:47:55;13.95;;;10.00;;
57848;SDS011;68645;44.762;21.516;2023-03-23T11:50:24;12.73;;;11.35;;
57848;SDS011;68645;44.762;21.516;2023-03-23T11:57:47;16.10;;;12.57;;
57848;SDS011;68645;44.762;21.516;2023-03-23T12:00:21;18.73;;;13.85;;
57848;SDS011;68645;44.762;21.516;2023-03-23T12:02:58;16.30;;;12.02;;
57848;SDS011;68645;44.762;21.516;2023-03-23T12:05:29;11.65;;;9.23;;
57848;SDS011;68645;44.762;21.516;2023-03-23T12:15:45;8.77;;;7.47;;
57848;SDS011;68645;44.762;21.516;2023-03-23T12:23:21;9.07;;;7.30;;
57848;SDS011;68645;44.762;21.516;2023-03-23T12:25:58;24.33;;;20.42;;
57848;SDS011;68645;44.762;21.516;2023-03-23T12:31:03;9.02;;;7.53;;
57848;SDS011;68645;44.762;21.516;2023-03-23T12:33:39;44.93;;;34.17;;
57848;SDS011;68645;44.762;21.516;2023-03-23T12:39:03;11.00;;;7.88;;
57848;SDS011;68645;44.762;21.516;2023-03-23T12:44:03;9.95;;;8.10;;
57848;SDS011;68645;44.762;21.516;2023-03-23T12:51:35;11.57;;;7.60;;
57848;SDS011;68645;44.762;21.516;2023-03-23T13:01:51;7.00;;;6.10;;
57848;SDS011;68645;44.762;21.516;2023-03-23T13:04:20;7.32;;;6.28;;
57848;SDS011;68645;44.762;21.516;2023-03-23T13:06:48;8.68;;;7.22;;
57848;SDS011;68645;44.762;21.516;2023-03-23T13:12:01;14.00;;;10.95;;
57848;SDS011;68645;44.762;21.516;2023-03-23T13:17:29;12.73;;;7.82;;
57848;SDS011;68645;44.762;21.516;2023-03-23T13:22:48;9.93;;;8.93;;
57848;SDS011;68645;44.762;21.516;2023-03-23T13:25:26;7.95;;;6.47;;
57848;SDS011;68645;44.762;21.516;2023-03-23T13:28:00;7.32;;;6.50;;
57848;SDS011;68645;44.762;21.516;2023-03-23T13:30:27;7.43;;;6.60;;
57848;SDS011;68645;44.762;21.516;2023-03-23T13:33:01;7.82;;;6.95;;
57848;SDS011;68645;44.762;21.516;2023-03-23T13:35:32;9.13;;;7.43;;
57848;SDS011;68645;44.762;21.516;2023-03-23T13:37:59;8.07;;;6.30;;
57848;SDS011;68645;44.762;21.516;2023-03-23T13:40:26;11.57;;;7.70;;
57848;SDS011;68645;44.762;21.516;2023-03-23T13:42:54;9.40;;;6.80;;
57848;SDS011;68645;44.762;21.516;2023-03-23T13:45:22;8.35;;;7.15;;
57848;SDS011;68645;44.762;21.516;2023-03-23T13:47:49;9.13;;;7.00;;
57848;SDS011;68645;44.762;21.516;2023-03-23T14:05:34;29.55;;;24.48;;
57848;SDS011;68645;44.762;21.516;2023-03-23T14:13:03;6.95;;;6.00;;
57848;SDS011;68645;44.762;21.516;2023-03-23T14:15:30;10.32;;;6.72;;
57848;SDS011;68645;44.762;21.516;2023-03-23T14:17:57;9.32;;;6.72;;
57848;SDS011;68645;44.762;21.516;2023-03-23T14:20:29;10.10;;;7.05;;
57848;SDS011;68645;44.762;21.516;2023-03-23T14:22:58;10.30;;;6.40;;
57848;SDS011;68645;44.762;21.516;2023-03-23T14:25:31;8.77;;;5.55;;
57848;SDS011;68645;44.762;21.516;2023-03-23T14:27:57;8.35;;;5.90;;
57848;SDS011;68645;44.762;21.516;2023-03-23T14:30:26;9.60;;;8.02;;
57848;SDS011;68645;44.762;21.516;2023-03-23T14:32:53;9.05;;;7.18;;
57848;SDS011;68645;44.762;21.516;2023-03-23T14:37:46;7.80;;;7.00;;
57848;SDS011;68645;44.762;21.516;2023-03-23T14:40:14;8.20;;;6.22;;
57848;SDS011;68645;44.762;21.516;2023-03-23T14:42:41;8.27;;;6.40;;
57848;SDS011;68645;44.762;21.516;2023-03-23T14:45:11;9.48;;;6.22;;
57848;SDS011;68645;44.762;21.516;2023-03-23T14:47:39;9.23;;;6.55;;
57848;SDS011;68645;44.762;21.516;2023-03-23T14:50:29;8.32;;;6.60;;
57848;SDS011;68645;44.762;21.516;2023-03-23T14:53:02;7.63;;;6.82;;
57848;SDS011;68645;44.762;21.516;2023-03-23T14:55:30;7.25;;;6.55;;
57848;SDS011;68645;44.762;21.516;2023-03-23T14:58:05;8.40;;;6.38;;
57848;SDS011;68645;44.762;21.516;2023-03-23T15:00:33;9.35;;;6.88;;
57848;SDS011;68645;44.762;21.516;2023-03-23T15:03:01;23.17;;;8.07;;
57848;SDS011;68645;44.762;21.516;2023-03-23T15:05:30;8.00;;;6.85;;
57848;SDS011;68645;44.762;21.516;2023-03-23T15:07:59;8.93;;;7.22;;
57848;SDS011;68645;44.762;21.516;2023-03-23T15:10:27;12.68;;;7.70;;
57848;SDS011;68645;44.762;21.516;2023-03-23T15:12:53;13.48;;;9.45;;
57848;SDS011;68645;44.762;21.516;2023-03-23T15:15:30;14.02;;;9.18;;
57848;SDS011;68645;44.762;21.516;2023-03-23T15:17:57;26.20;;;18.75;;
57848;SDS011;68645;44.762;21.516;2023-03-23T15:20:25;143.40;;;122.30;;
57848;SDS011;68645;44.762;21.516;2023-03-23T15:22:52;42.70;;;34.97;;
57848;SDS011;68645;44.762;21.516;2023-03-23T15:28:30;34.53;;;30.38;;
57848;SDS011;68645;44.762;21.516;2023-03-23T15:30:45;12.18;;;9.25;;
57848;SDS011;68645;44.762;21.516;2023-03-23T15:33:12;11.18;;;9.23;;
57848;SDS011;68645;44.762;21.516;2023-03-23T15:35:40;14.95;;;9.02;;
57848;SDS011;68645;44.762;21.516;2023-03-23T15:38:42;9.38;;;7.43;;
57848;SDS011;68645;44.762;21.516;2023-03-23T15:41:00;10.75;;;8.18;;
57848;SDS011;68645;44.762;21.516;2023-03-23T15:43:28;10.73;;;7.80;;
57848;SDS011;68645;44.762;21.516;2023-03-23T15:45:57;13.25;;;10.05;;
57848;SDS011;68645;44.762;21.516;2023-03-23T15:48:28;12.05;;;9.68;;
57848;SDS011;68645;44.762;21.516;2023-03-23T15:50:55;13.18;;;8.98;;
57848;SDS011;68645;44.762;21.516;2023-03-23T15:55:47;15.27;;;11.85;;
57848;SDS011;68645;44.762;21.516;2023-03-23T15:58:13;18.17;;;13.15;;
57848;SDS011;68645;44.762;21.516;2023-03-23T16:00:40;19.10;;;14.98;;
57848;SDS011;68645;44.762;21.516;2023-03-23T16:03:09;30.67;;;20.60;;
57848;SDS011;68645;44.762;21.516;2023-03-23T16:05:37;40.95;;;24.33;;
57848;SDS011;68645;44.762;21.516;2023-03-23T16:08:03;35.63;;;24.65;;
57848;SDS011;68645;44.762;21.516;2023-03-23T16:10:30;33.67;;;22.50;;
57848;SDS011;68645;44.762;21.516;2023-03-23T16:12:56;31.45;;;19.27;;
57848;SDS011;68645;44.762;21.516;2023-03-23T16:15:22;35.20;;;19.15;;
57848;SDS011;68645;44.762;21.516;2023-03-23T16:17:48;19.50;;;13.43;;
57848;SDS011;68645;44.762;21.516;2023-03-23T16:20:15;20.80;;;14.75;;
57848;SDS011;68645;44.762;21.516;2023-03-23T16:22:42;21.73;;;14.05;;